sensor_id;sensor_type;location;lat;lon;timestamp;pressure;altitude;pressure_sealevel;temperature;humidity
40992;BME280;29633;49.168;9.848;2023-02-10T00:00:45;98601.59;;;2.55;54.71
40992;BME280;29633;49.168;9.848;2023-02-10T00:03:11;98602.44;;;2.54;54.75
40992;BME280;29633;49.168;9.848;2023-02-10T00:05:36;98598.97;;;2.58;54.68
40992;BME280;29633;49.168;9.848;2023-02-10T00:08:02;98594.69;;;2.59;54.81
40992;BME280;29633;49.168;9.848;2023-02-10T00:10:28;98604.94;;;2.57;55.08
40992;BME280;29633;49.168;9.848;2023-02-10T00:12:53;98598.97;;;2.58;55.21
40992;BME280;29633;49.168;9.848;2023-02-10T00:15:19;98606.69;;;2.57;55.14
40992;BME280;29633;49.168;9.848;2023-02-10T00:17:44;98608.34;;;2.58;54.91
40992;BME280;29633;49.168;9.848;2023-02-10T00:20:10;98616.09;;;2.56;55.02
40992;BME280;29633;49.168;9.848;2023-02-10T00:22:36;98616.94;;;2.55;54.92
40992;BME280;29633;49.168;9.848;2023-02-10T00:25:02;98615.25;;;2.54;54.84
40992;BME280;29633;49.168;9.848;2023-02-10T00:27:27;98614.44;;;2.52;54.96
40992;BME280;29633;49.168;9.848;2023-02-10T00:29:53;98605.06;;;2.51;54.87
40992;BME280;29633;49.168;9.848;2023-02-10T00:32:18;98611.03;;;2.52;54.83
40992;BME280;29633;49.168;9.848;2023-02-10T00:34:45;98611.06;;;2.50;55.01
40992;BME280;29633;49.168;9.848;2023-02-10T00:37:10;98611.97;;;2.49;54.93
40992;BME280;29633;49.168;9.848;2023-02-10T00:39:36;98611.97;;;2.46;54.93
40992;BME280;29633;49.168;9.848;2023-02-10T00:42:03;98612.88;;;2.45;55.18
40992;BME280;29633;49.168;9.848;2023-02-10T00:44:28;98617.16;;;2.44;55.15
40992;BME280;29633;49.168;9.848;2023-02-10T00:46:54;98624.78;;;2.46;54.89
40992;BME280;29633;49.168;9.848;2023-02-10T00:49:20;98620.56;;;2.43;55.07
40992;BME280;29633;49.168;9.848;2023-02-10T00:51:46;98621.41;;;2.44;54.86
40992;BME280;29633;49.168;9.848;2023-02-10T00:54:11;98634.22;;;2.42;55.11
40992;BME280;29633;49.168;9.848;2023-02-10T00:56:39;98640.19;;;2.43;55.10
40992;BME280;29633;49.168;9.848;2023-02-10T00:59:04;98643.53;;;2.48;55.21
40992;BME280;29633;49.168;9.848;2023-02-10T01:01:30;98647.72;;;2.52;54.66
40992;BME280;29633;49.168;9.848;2023-02-10T01:03:57;98647.72;;;2.52;55.03
40992;BME280;29633;49.168;9.848;2023-02-10T01:06:22;98648.66;;;2.48;54.94
40992;BME280;29633;49.168;9.848;2023-02-10T01:08:48;98648.66;;;2.46;55.05
40992;BME280;29633;49.168;9.848;2023-02-10T01:11:14;98654.69;;;2.45;55.05
40992;BME280;29633;49.168;9.848;2023-02-10T01:13:41;98649.56;;;2.44;55.33
40992;BME280;29633;49.168;9.848;2023-02-10T01:16:10;98642.75;;;2.43;55.09
40992;BME280;29633;49.168;9.848;2023-02-10T01:18:38;98641.03;;;2.45;54.90
40992;BME280;29633;49.168;9.848;2023-02-10T01:21:11;98640.13;;;2.46;55.18
40992;BME280;29633;49.168;9.848;2023-02-10T01:23:37;98645.19;;;2.51;54.87
40992;BME280;29633;49.168;9.848;2023-02-10T01:26:04;98642.63;;;2.51;54.99
40992;BME280;29633;49.168;9.848;2023-02-10T01:28:30;98648.59;;;2.51;55.32
40992;BME280;29633;49.168;9.848;2023-02-10T01:30:55;98649.44;;;2.52;54.78
40992;BME280;29633;49.168;9.848;2023-02-10T01:33:21;98648.63;;;2.50;55.07
40992;BME280;29633;49.168;9.848;2023-02-10T01:35:47;98653.66;;;2.54;55.01
40992;BME280;29633;49.168;9.848;2023-02-10T01:38:12;98647.72;;;2.52;55.41
40992;BME280;29633;49.168;9.848;2023-02-10T01:40:38;98654.69;;;2.44;55.22
40992;BME280;29633;49.168;9.848;2023-02-10T01:43:14;98659.03;;;2.40;55.17
40992;BME280;29633;49.168;9.848;2023-02-10T01:45:40;98653.91;;;2.39;55.33
40992;BME280;29633;49.168;9.848;2023-02-10T01:48:06;98648.84;;;2.37;55.39
40992;BME280;29633;49.168;9.848;2023-02-10T01:51:03;98660.78;;;2.37;55.39
40992;BME280;29633;49.168;9.848;2023-02-10T01:53:31;98651.47;;;2.34;55.56
40992;BME280;29633;49.168;9.848;2023-02-10T01:55:57;98647.22;;;2.32;55.24
40992;BME280;29633;49.168;9.848;2023-02-10T01:58:27;98650.69;;;2.29;55.25
40992;BME280;29633;49.168;9.848;2023-02-10T02:00:55;98655.00;;;2.27;55.40
40992;BME280;29633;49.168;9.848;2023-02-10T02:03:20;98655.88;;;2.26;55.25
40992;BME280;29633;49.168;9.848;2023-02-10T02:05:46;98654.25;;;2.21;55.61
40992;BME280;29633;49.168;9.848;2023-02-10T02:08:20;98658.56;;;2.17;55.38
40992;BME280;29633;49.168;9.848;2023-02-10T02:16:58;98660.47;;;2.06;55.48
40992;BME280;29633;49.168;9.848;2023-02-10T02:30:53;98681.88;;;2.02;55.51
40992;BME280;29633;49.168;9.848;2023-02-10T02:36:08;98681.88;;;2.02;55.17
40992;BME280;29633;49.168;9.848;2023-02-10T02:38:38;98686.13;;;2.02;55.09
40992;BME280;29633;49.168;9.848;2023-02-10T02:41:04;98686.09;;;2.03;55.43
40992;BME280;29633;49.168;9.848;2023-02-10T02:43:29;98684.44;;;2.01;55.32
40992;BME280;29633;49.168;9.848;2023-02-10T02:49:13;98680.28;;;1.93;55.33
40992;BME280;29633;49.168;9.848;2023-02-10T03:02:14;98679.38;;;1.96;55.15
40992;BME280;29633;49.168;9.848;2023-02-10T03:04:41;98674.31;;;1.94;55.53
40992;BME280;29633;49.168;9.848;2023-02-10T03:07:07;98677.72;;;1.95;55.41
40992;BME280;29633;49.168;9.848;2023-02-10T03:09:33;98680.28;;;1.93;55.38
40992;BME280;29633;49.168;9.848;2023-02-10T03:11:59;98677.72;;;1.92;55.62
40992;BME280;29633;49.168;9.848;2023-02-10T03:14:24;98676.81;;;1.97;55.45
40992;BME280;29633;49.168;9.848;2023-02-10T03:16:50;98677.59;;;2.01;55.34
40992;BME280;29633;49.168;9.848;2023-02-10T03:19:16;98685.16;;;2.09;55.65
40992;BME280;29633;49.168;9.848;2023-02-10T03:21:42;98673.19;;;2.11;55.44
40992;BME280;29633;49.168;9.848;2023-02-10T03:24:07;98684.25;;;2.11;55.24
40992;BME280;29633;49.168;9.848;2023-02-10T03:26:35;98679.19;;;2.08;55.63
40992;BME280;29633;49.168;9.848;2023-02-10T03:29:01;98687.78;;;2.06;55.55
40992;BME280;29633;49.168;9.848;2023-02-10T03:31:26;98680.91;;;2.09;55.46
40992;BME280;29633;49.168;9.848;2023-02-10T03:33:52;98685.09;;;2.12;55.38
40992;BME280;29633;49.168;9.848;2023-02-10T03:36:17;98685.03;;;2.16;55.64
40992;BME280;29633;49.168;9.848;2023-02-10T03:38:43;98683.28;;;2.20;55.63
40992;BME280;29633;49.168;9.848;2023-02-10T03:41:09;98686.69;;;2.19;55.47
40992;BME280;29633;49.168;9.848;2023-02-10T03:43:35;98687.53;;;2.19;55.69
40992;BME280;29633;49.168;9.848;2023-02-10T03:46:01;98691.69;;;2.25;55.69
40992;BME280;29633;49.168;9.848;2023-02-10T03:48:27;98688.28;;;2.24;55.66
40992;BME280;29633;49.168;9.848;2023-02-10T03:51:01;98683.16;;;2.26;55.41
40992;BME280;29633;49.168;9.848;2023-02-10T03:53:27;98681.44;;;2.28;55.76
40992;BME280;29633;49.168;9.848;2023-02-10T03:55:53;98683.94;;;2.31;55.88
40992;BME280;29633;49.168;9.848;2023-02-10T03:58:19;98679.63;;;2.33;55.50
40992;BME280;29633;49.168;9.848;2023-02-10T04:00:44;98682.22;;;2.31;55.49
40992;BME280;29633;49.168;9.848;2023-02-10T04:03:10;98693.28;;;2.33;55.70
40992;BME280;29633;49.168;9.848;2023-02-10T04:05:36;98685.59;;;2.33;55.44
40992;BME280;29633;49.168;9.848;2023-02-10T04:08:01;98691.63;;;2.29;55.40
40992;BME280;29633;49.168;9.848;2023-02-10T04:10:27;98687.44;;;2.25;55.86
40992;BME280;29633;49.168;9.848;2023-02-10T04:12:53;98694.25;;;2.26;55.56
40992;BME280;29633;49.168;9.848;2023-02-10T04:15:19;98705.28;;;2.30;55.50
40992;BME280;29633;49.168;9.848;2023-02-10T04:17:44;98713.75;;;2.32;55.55
40992;BME280;29633;49.168;9.848;2023-02-10T04:20:11;98717.16;;;2.34;55.71
40992;BME280;29633;49.168;9.848;2023-02-10T04:22:36;98713.69;;;2.36;55.41
40992;BME280;29633;49.168;9.848;2023-02-10T04:25:02;98707.66;;;2.39;55.71
40992;BME280;29633;49.168;9.848;2023-02-10T04:27:28;98710.19;;;2.42;55.66
40992;BME280;29633;49.168;9.848;2023-02-10T04:29:54;98709.34;;;2.40;55.50
40992;BME280;29633;49.168;9.848;2023-02-10T04:32:21;98717.03;;;2.40;55.91
40992;BME280;29633;49.168;9.848;2023-02-10T04:34:47;98715.41;;;2.36;55.70
40992;BME280;29633;49.168;9.848;2023-02-10T04:37:12;98721.41;;;2.33;55.73
40992;BME280;29633;49.168;9.848;2023-02-10T04:39:38;98718.91;;;2.30;55.92
40992;BME280;29633;49.168;9.848;2023-02-10T04:42:04;98720.63;;;2.30;55.75
40992;BME280;29633;49.168;9.848;2023-02-10T04:44:29;98725.69;;;2.34;55.86
40992;BME280;29633;49.168;9.848;2023-02-10T04:46:55;98724.81;;;2.34;55.79
40992;BME280;29633;49.168;9.848;2023-02-10T04:49:21;98725.63;;;2.36;55.56
40992;BME280;29633;49.168;9.848;2023-02-10T04:51:46;98723.97;;;2.35;55.45
40992;BME280;29633;49.168;9.848;2023-02-10T04:54:12;98724.03;;;2.29;55.87
40992;BME280;29633;49.168;9.848;2023-02-10T04:56:37;98724.03;;;2.30;55.91
40992;BME280;29633;49.168;9.848;2023-02-10T04:59:03;98715.44;;;2.33;55.72
40992;BME280;29633;49.168;9.848;2023-02-10T05:01:29;98716.28;;;2.35;55.74
40992;BME280;29633;49.168;9.848;2023-02-10T05:03:54;98728.25;;;2.33;55.69
40992;BME280;29633;49.168;9.848;2023-02-10T05:06:20;98732.50;;;2.32;55.63
40992;BME280;29633;49.168;9.848;2023-02-10T05:08:45;98727.41;;;2.32;55.87
40992;BME280;29633;49.168;9.848;2023-02-10T05:11:13;98728.22;;;2.34;55.76
40992;BME280;29633;49.168;9.848;2023-02-10T05:13:42;98741.03;;;2.34;55.63
40992;BME280;29633;49.168;9.848;2023-02-10T05:16:11;98742.75;;;2.32;55.61
40992;BME280;29633;49.168;9.848;2023-02-10T05:18:38;98745.38;;;2.29;55.50
40992;BME280;29633;49.168;9.848;2023-02-10T05:21:09;98743.78;;;2.22;55.95
40992;BME280;29633;49.168;9.848;2023-02-10T05:23:35;98736.16;;;2.18;55.77
40992;BME280;29633;49.168;9.848;2023-02-10T05:26:01;98741.34;;;2.15;56.09
40992;BME280;29633;49.168;9.848;2023-02-10T05:28:27;98740.56;;;2.10;55.83
40992;BME280;29633;49.168;9.848;2023-02-10T05:30:53;98739.78;;;2.06;56.23
40992;BME280;29633;49.168;9.848;2023-02-10T05:33:19;98738.97;;;2.03;55.84
40992;BME280;29633;49.168;9.848;2023-02-10T05:35:44;98738.13;;;2.01;55.98
40992;BME280;29633;49.168;9.848;2023-02-10T05:38:10;98748.47;;;1.94;55.94
40992;BME280;29633;49.168;9.848;2023-02-10T05:40:35;98753.69;;;1.87;56.28
40992;BME280;29633;49.168;9.848;2023-02-10T05:43:01;98762.22;;;1.87;56.02
40992;BME280;29633;49.168;9.848;2023-02-10T05:45:27;98771.59;;;1.85;55.95
40992;BME280;29633;49.168;9.848;2023-02-10T05:47:52;98764.81;;;1.83;55.67
40992;BME280;29633;49.168;9.848;2023-02-10T05:50:18;98765.72;;;1.80;56.17
40992;BME280;29633;49.168;9.848;2023-02-10T05:52:44;98764.06;;;1.76;56.02
40992;BME280;29633;49.168;9.848;2023-02-10T05:55:10;98767.53;;;1.71;55.89
40992;BME280;29633;49.168;9.848;2023-02-10T05:57:36;98766.78;;;1.66;55.94
40992;BME280;29633;49.168;9.848;2023-02-10T06:00:03;98777.03;;;1.61;55.86
40992;BME280;29633;49.168;9.848;2023-02-10T06:02:29;98778.78;;;1.58;56.31
40992;BME280;29633;49.168;9.848;2023-02-10T06:04:55;98780.53;;;1.54;56.30
40992;BME280;29633;49.168;9.848;2023-02-10T06:07:21;98784.84;;;1.51;55.98
40992;BME280;29633;49.168;9.848;2023-02-10T06:09:46;98771.22;;;1.52;56.14
40992;BME280;29633;49.168;9.848;2023-02-10T06:12:12;98778.00;;;1.54;56.28
40992;BME280;29633;49.168;9.848;2023-02-10T06:14:37;98778.81;;;1.56;55.78
40992;BME280;29633;49.168;9.848;2023-02-10T06:17:04;98778.00;;;1.54;55.91
40992;BME280;29633;49.168;9.848;2023-02-10T06:19:38;98781.41;;;1.53;55.89
40992;BME280;29633;49.168;9.848;2023-02-10T06:22:05;98787.38;;;1.52;55.76
40992;BME280;29633;49.168;9.848;2023-02-10T06:24:30;98796.75;;;1.53;55.77
40992;BME280;29633;49.168;9.848;2023-02-10T06:26:56;98795.03;;;1.54;56.04
40992;BME280;29633;49.168;9.848;2023-02-10T06:29:22;98801.03;;;1.49;55.82
40992;BME280;29633;49.168;9.848;2023-02-10T06:31:47;98808.75;;;1.45;56.14
40992;BME280;29633;49.168;9.848;2023-02-10T06:34:13;98812.19;;;1.44;55.87
40992;BME280;29633;49.168;9.848;2023-02-10T06:36:39;98820.66;;;1.46;55.64
40992;BME280;29633;49.168;9.848;2023-02-10T06:39:04;98824.09;;;1.45;55.84
40992;BME280;29633;49.168;9.848;2023-02-10T06:41:31;98819.81;;;1.47;55.90
40992;BME280;29633;49.168;9.848;2023-02-10T06:43:57;98828.34;;;1.47;55.69
40992;BME280;29633;49.168;9.848;2023-02-10T06:46:22;98833.41;;;1.49;55.94
40992;BME280;29633;49.168;9.848;2023-02-10T06:48:48;98842.78;;;1.50;55.84
40992;BME280;29633;49.168;9.848;2023-02-10T06:51:13;98832.50;;;1.53;55.86
40992;BME280;29633;49.168;9.848;2023-02-10T06:53:39;98835.91;;;1.55;55.63
40992;BME280;29633;49.168;9.848;2023-02-10T06:56:05;98838.47;;;1.55;55.80
40992;BME280;29633;49.168;9.848;2023-02-10T06:58:31;98836.78;;;1.54;55.91
40992;BME280;29633;49.168;9.848;2023-02-10T07:00:57;98832.50;;;1.55;55.56
40992;BME280;29633;49.168;9.848;2023-02-10T07:03:24;98832.47;;;1.56;55.61
40992;BME280;29633;49.168;9.848;2023-02-10T07:05:50;98835.03;;;1.59;55.77
40992;BME280;29633;49.168;9.848;2023-02-10T07:08:16;98833.28;;;1.63;55.37
40992;BME280;29633;49.168;9.848;2023-02-10T07:10:41;98834.03;;;1.68;55.88
40992;BME280;29633;49.168;9.848;2023-02-10T07:13:07;98838.25;;;1.70;55.76
40992;BME280;29633;49.168;9.848;2023-02-10T07:15:33;98829.66;;;1.77;55.59
40992;BME280;29633;49.168;9.848;2023-02-10T07:17:59;98831.31;;;1.84;55.67
40992;BME280;29633;49.168;9.848;2023-02-10T07:20:25;98838.84;;;1.93;55.47
40992;BME280;29633;49.168;9.848;2023-02-10T07:22:50;98841.31;;;1.99;55.29
40992;BME280;29633;49.168;9.848;2023-02-10T07:25:17;98837.78;;;2.10;55.57
40992;BME280;29633;49.168;9.848;2023-02-10T07:27:43;98826.59;;;2.17;55.24
40992;BME280;29633;49.168;9.848;2023-02-10T07:30:10;98833.28;;;2.25;55.28
40992;BME280;29633;49.168;9.848;2023-02-10T07:32:35;98829.75;;;2.32;55.63
40992;BME280;29633;49.168;9.848;2023-02-10T07:35:01;98827.97;;;2.37;55.54
40992;BME280;29633;49.168;9.848;2023-02-10T07:37:27;98835.50;;;2.48;55.50
40992;BME280;29633;49.168;9.848;2023-02-10T07:39:52;98832.78;;;2.57;55.70
40992;BME280;29633;49.168;9.848;2023-02-10T07:42:18;98833.50;;;2.67;55.45
40992;BME280;29633;49.168;9.848;2023-02-10T07:44:44;98829.91;;;2.78;55.39
40992;BME280;29633;49.168;9.848;2023-02-10T07:47:10;98832.28;;;2.89;55.35
40992;BME280;29633;49.168;9.848;2023-02-10T07:49:36;98825.25;;;3.00;55.48
40992;BME280;29633;49.168;9.848;2023-02-10T07:52:02;98826.72;;;3.13;55.44
40992;BME280;29633;49.168;9.848;2023-02-10T07:54:27;98822.19;;;3.27;55.38
40992;BME280;29633;49.168;9.848;2023-02-10T07:56:53;98824.47;;;3.41;55.35
40992;BME280;29633;49.168;9.848;2023-02-10T07:59:20;98830.31;;;3.51;55.42
40992;BME280;29633;49.168;9.848;2023-02-10T08:01:46;98841.28;;;3.57;55.54
40992;BME280;29633;49.168;9.848;2023-02-10T08:04:12;98832.59;;;3.64;55.47
40992;BME280;29633;49.168;9.848;2023-02-10T08:06:38;98828.88;;;3.77;55.63
40992;BME280;29633;49.168;9.848;2023-02-10T08:09:04;98832.09;;;3.88;55.46
40992;BME280;29633;49.168;9.848;2023-02-10T08:11:29;98839.56;;;3.99;55.57
40992;BME280;29633;49.168;9.848;2023-02-10T08:13:55;98847.09;;;4.07;55.75
40992;BME280;29633;49.168;9.848;2023-02-10T08:16:21;98847.69;;;4.19;55.53
40992;BME280;29633;49.168;9.848;2023-02-10T08:18:46;98844.91;;;4.28;55.69
40992;BME280;29633;49.168;9.848;2023-02-10T08:21:12;98853.22;;;4.38;55.56
40992;BME280;29633;49.168;9.848;2023-02-10T08:23:38;98852.09;;;4.51;55.57
40992;BME280;29633;49.168;9.848;2023-02-10T08:26:09;98855.19;;;4.65;55.79
40992;BME280;29633;49.168;9.848;2023-02-10T08:28:36;98854.22;;;4.69;55.77
40992;BME280;29633;49.168;9.848;2023-02-10T08:31:03;98853.13;;;4.79;55.55
40992;BME280;29633;49.168;9.848;2023-02-10T08:33:29;98849.44;;;4.91;55.70
40992;BME280;29633;49.168;9.848;2023-02-10T08:35:56;98854.19;;;5.06;55.40
40992;BME280;29633;49.168;9.848;2023-02-10T08:38:22;98857.97;;;5.25;55.54
40992;BME280;29633;49.168;9.848;2023-02-10T08:40:55;98856.38;;;6.43;54.10
40992;BME280;29633;49.168;9.848;2023-02-10T08:43:20;98852.28;;;8.12;52.17
40992;BME280;29633;49.168;9.848;2023-02-10T08:45:46;98841.22;;;9.58;50.64
40992;BME280;29633;49.168;9.848;2023-02-10T08:48:12;98832.75;;;10.85;49.13
40992;BME280;29633;49.168;9.848;2023-02-10T08:50:37;98833.59;;;11.03;49.50
40992;BME280;29633;49.168;9.848;2023-02-10T08:53:03;98827.94;;;11.12;50.38
40992;BME280;29633;49.168;9.848;2023-02-10T08:55:28;98831.94;;;12.02;49.52
40992;BME280;29633;49.168;9.848;2023-02-10T08:57:54;98839.09;;;12.61;48.87
40992;BME280;29633;49.168;9.848;2023-02-10T09:00:20;98835.69;;;12.90;49.05
40992;BME280;29633;49.168;9.848;2023-02-10T09:02:48;98830.59;;;13.18;49.25
40992;BME280;29633;49.168;9.848;2023-02-10T09:05:15;98834.50;;;13.69;48.91
40992;BME280;29633;49.168;9.848;2023-02-10T09:07:41;98836.91;;;14.15;48.58
40992;BME280;29633;49.168;9.848;2023-02-10T09:10:08;98834.94;;;14.18;48.87
40992;BME280;29633;49.168;9.848;2023-02-10T09:12:36;98827.81;;;13.94;49.70
40992;BME280;29633;49.168;9.848;2023-02-10T09:15:02;98831.34;;;13.78;50.13
40992;BME280;29633;49.168;9.848;2023-02-10T09:17:28;98829.28;;;13.55;50.78
40992;BME280;29633;49.168;9.848;2023-02-10T09:19:53;98836.53;;;13.50;51.42
40992;BME280;29633;49.168;9.848;2023-02-10T09:22:19;98839.31;;;13.47;51.59
40992;BME280;29633;49.168;9.848;2023-02-10T09:24:44;98841.53;;;13.39;51.93
40992;BME280;29633;49.168;9.848;2023-02-10T09:27:12;98845.13;;;13.22;52.16
40992;BME280;29633;49.168;9.848;2023-02-10T09:29:38;98848.91;;;13.17;52.36
40992;BME280;29633;49.168;9.848;2023-02-10T09:32:04;98850.13;;;13.11;52.37
40992;BME280;29633;49.168;9.848;2023-02-10T09:34:29;98854.16;;;13.01;52.81
40992;BME280;29633;49.168;9.848;2023-02-10T09:36:57;98846.41;;;13.15;52.66
40992;BME280;29633;49.168;9.848;2023-02-10T09:39:27;98836.44;;;14.22;51.56
40992;BME280;29633;49.168;9.848;2023-02-10T09:44:31;98837.97;;;16.09;49.37
40992;BME280;29633;49.168;9.848;2023-02-10T09:47:01;98832.34;;;15.90;50.07
40992;BME280;29633;49.168;9.848;2023-02-10T09:49:54;98845.91;;;15.95;50.22
40992;BME280;29633;49.168;9.848;2023-02-10T10:03:56;98844.19;;;15.31;52.15
40992;BME280;29633;49.168;9.848;2023-02-10T10:06:35;98851.19;;;14.91;53.12
40992;BME280;29633;49.168;9.848;2023-02-10T10:14:03;98855.78;;;14.32;54.58
40992;BME280;29633;49.168;9.848;2023-02-10T10:30:45;98844.28;;;18.29;50.35
40992;BME280;29633;49.168;9.848;2023-02-10T10:35:51;98848.19;;;19.42;49.10
40992;BME280;29633;49.168;9.848;2023-02-10T10:38:38;98851.91;;;19.60;49.29
40992;BME280;29633;49.168;9.848;2023-02-10T10:41:11;98843.59;;;19.86;48.89
40992;BME280;29633;49.168;9.848;2023-02-10T10:43:48;98847.16;;;20.15;48.17
40992;BME280;29633;49.168;9.848;2023-02-10T10:46:23;98849.69;;;20.17;48.28
40992;BME280;29633;49.168;9.848;2023-02-10T10:48:51;98851.28;;;20.08;47.86
40992;BME280;29633;49.168;9.848;2023-02-10T10:51:18;98851.69;;;19.52;48.08
40992;BME280;29633;49.168;9.848;2023-02-10T10:53:44;98855.41;;;18.86;48.76
40992;BME280;29633;49.168;9.848;2023-02-10T10:56:16;98849.28;;;18.20;49.58
40992;BME280;29633;49.168;9.848;2023-02-10T10:58:44;98859.88;;;17.63;50.00
40992;BME280;29633;49.168;9.848;2023-02-10T11:01:12;98863.66;;;17.01;50.57
40992;BME280;29633;49.168;9.848;2023-02-10T11:03:39;98855.50;;;16.45;51.24
40992;BME280;29633;49.168;9.848;2023-02-10T11:08:55;98847.53;;;15.72;51.88
40992;BME280;29633;49.168;9.848;2023-02-10T11:11:33;98844.31;;;15.42;52.12
40992;BME280;29633;49.168;9.848;2023-02-10T11:13:59;98843.94;;;15.09;52.33
40992;BME280;29633;49.168;9.848;2023-02-10T11:16:26;98850.13;;;14.81;52.45
40992;BME280;29633;49.168;9.848;2023-02-10T11:19:00;98843.56;;;14.61;52.82
40992;BME280;29633;49.168;9.848;2023-02-10T11:21:39;98848.72;;;14.49;52.68
40992;BME280;29633;49.168;9.848;2023-02-10T11:24:21;98845.22;;;14.36;52.79
40992;BME280;29633;49.168;9.848;2023-02-10T11:29:24;98839.53;;;14.01;53.06
40992;BME280;29633;49.168;9.848;2023-02-10T11:31:52;98833.94;;;13.78;53.11
40992;BME280;29633;49.168;9.848;2023-02-10T11:34:28;98833.75;;;13.67;53.18
40992;BME280;29633;49.168;9.848;2023-02-10T11:36:55;98840.19;;;13.62;53.22
40992;BME280;29633;49.168;9.848;2023-02-10T11:39:33;98822.59;;;13.51;53.34
40992;BME280;29633;49.168;9.848;2023-02-10T11:42:10;98832.34;;;13.48;53.33
40992;BME280;29633;49.168;9.848;2023-02-10T11:44:36;98835.41;;;13.40;53.50
40992;BME280;29633;49.168;9.848;2023-02-10T11:47:05;98830.75;;;13.31;53.34
40992;BME280;29633;49.168;9.848;2023-02-10T11:49:37;98834.47;;;13.27;53.56
40992;BME280;29633;49.168;9.848;2023-02-10T11:52:07;98835.91;;;13.17;53.67
40992;BME280;29633;49.168;9.848;2023-02-10T11:54:32;98831.81;;;13.13;53.76
40992;BME280;29633;49.168;9.848;2023-02-10T12:08:18;98809.38;;;13.10;53.76
40992;BME280;29633;49.168;9.848;2023-02-10T12:13:56;98806.50;;;13.15;53.98
40992;BME280;29633;49.168;9.848;2023-02-10T12:16:48;98801.56;;;13.10;54.05
40992;BME280;29633;49.168;9.848;2023-02-10T12:22:09;98809.13;;;13.15;53.68
40992;BME280;29633;49.168;9.848;2023-02-10T12:27:40;98808.13;;;13.02;54.06
40992;BME280;29633;49.168;9.848;2023-02-10T12:35:35;98803.19;;;13.13;53.89
40992;BME280;29633;49.168;9.848;2023-02-10T12:38:52;98791.38;;;13.21;53.93
40992;BME280;29633;49.168;9.848;2023-02-10T12:52:18;98777.19;;;13.69;53.86
40992;BME280;29633;49.168;9.848;2023-02-10T12:57:37;98774.91;;;14.06;53.87
40992;BME280;29633;49.168;9.848;2023-02-10T13:00:11;98780.25;;;14.31;53.51
40992;BME280;29633;49.168;9.848;2023-02-10T13:02:50;98777.28;;;14.64;53.20
40992;BME280;29633;49.168;9.848;2023-02-10T13:05:38;98773.28;;;14.98;52.61
40992;BME280;29633;49.168;9.848;2023-02-10T13:08:05;98765.69;;;15.20;52.53
40992;BME280;29633;49.168;9.848;2023-02-10T13:10:38;98765.38;;;15.24;52.37
40992;BME280;29633;49.168;9.848;2023-02-10T13:13:15;98773.03;;;15.15;52.84
40992;BME280;29633;49.168;9.848;2023-02-10T13:18:22;98774.88;;;15.13;53.26
40992;BME280;29633;49.168;9.848;2023-02-10T13:34:21;98764.47;;;15.63;54.92
40992;BME280;29633;49.168;9.848;2023-02-10T13:36:57;98764.97;;;15.94;55.26
40992;BME280;29633;49.168;9.848;2023-02-10T13:39:25;98766.41;;;16.34;55.07
40992;BME280;29633;49.168;9.848;2023-02-10T13:42:17;98767.28;;;16.58;55.40
40992;BME280;29633;49.168;9.848;2023-02-10T13:45:14;98763.34;;;16.88;55.34
40992;BME280;29633;49.168;9.848;2023-02-10T13:58:33;98764.91;;;18.25;54.76
40992;BME280;29633;49.168;9.848;2023-02-10T14:01:00;98770.50;;;18.54;54.48
40992;BME280;29633;49.168;9.848;2023-02-10T14:03:28;98763.75;;;18.93;54.30
40992;BME280;29633;49.168;9.848;2023-02-10T14:06:07;98764.53;;;19.04;54.38
40992;BME280;29633;49.168;9.848;2023-02-10T14:08:36;98757.88;;;19.21;54.23
40992;BME280;29633;49.168;9.848;2023-02-10T14:13:43;98758.34;;;19.05;54.42
40992;BME280;29633;49.168;9.848;2023-02-10T14:18:44;98756.53;;;19.47;53.95
40992;BME280;29633;49.168;9.848;2023-02-10T14:21:13;98760.53;;;19.72;53.58
40992;BME280;29633;49.168;9.848;2023-02-10T14:23:42;98759.56;;;19.73;53.75
40992;BME280;29633;49.168;9.848;2023-02-10T14:26:18;98757.31;;;19.69;53.50
40992;BME280;29633;49.168;9.848;2023-02-10T14:28:50;98755.97;;;19.74;53.87
40992;BME280;29633;49.168;9.848;2023-02-10T14:31:39;98757.03;;;19.62;54.03
40992;BME280;29633;49.168;9.848;2023-02-10T14:34:18;98761.34;;;19.63;54.32
40992;BME280;29633;49.168;9.848;2023-02-10T14:39:24;98750.47;;;19.87;53.90
40992;BME280;29633;49.168;9.848;2023-02-10T14:41:50;98748.69;;;19.97;53.66
40992;BME280;29633;49.168;9.848;2023-02-10T14:44:30;98743.91;;;20.11;53.51
40992;BME280;29633;49.168;9.848;2023-02-10T14:46:58;98750.44;;;20.17;53.34
40992;BME280;29633;49.168;9.848;2023-02-10T14:49:24;98750.28;;;20.09;53.53
40992;BME280;29633;49.168;9.848;2023-02-10T14:51:50;98748.66;;;19.78;53.82
40992;BME280;29633;49.168;9.848;2023-02-10T14:54:26;98745.19;;;19.47;53.99
40992;BME280;29633;49.168;9.848;2023-02-10T14:57:01;98748.50;;;19.28;53.73
40992;BME280;29633;49.168;9.848;2023-02-10T14:59:29;98755.97;;;19.02;53.30
40992;BME280;29633;49.168;9.848;2023-02-10T15:01:59;98754.19;;;18.71;53.01
40992;BME280;29633;49.168;9.848;2023-02-10T15:04:25;98750.81;;;18.37;52.96
40992;BME280;29633;49.168;9.848;2023-02-10T15:06:55;98750.88;;;18.15;52.93
40992;BME280;29633;49.168;9.848;2023-02-10T15:09:31;98753.88;;;17.88;52.77
40992;BME280;29633;49.168;9.848;2023-02-10T15:12:04;98746.72;;;17.57;52.92
40992;BME280;29633;49.168;9.848;2023-02-10T15:17:09;98748.31;;;17.13;52.58
40992;BME280;29633;49.168;9.848;2023-02-10T15:22:36;98756.81;;;16.58;52.65
40992;BME280;29633;49.168;9.848;2023-02-10T15:30:54;98754.50;;;15.81;52.12
40992;BME280;29633;49.168;9.848;2023-02-10T15:33:25;98748.59;;;15.54;52.09
40992;BME280;29633;49.168;9.848;2023-02-10T15:35:55;98752.66;;;15.33;52.08
40992;BME280;29633;49.168;9.848;2023-02-10T15:38:23;98752.13;;;15.15;52.07
40992;BME280;29633;49.168;9.848;2023-02-10T15:40:56;98753.66;;;14.92;51.99
40992;BME280;29633;49.168;9.848;2023-02-10T15:43:30;98752.69;;;14.81;51.96
40992;BME280;29633;49.168;9.848;2023-02-10T15:46:26;98755.66;;;14.62;51.74
40992;BME280;29633;49.168;9.848;2023-02-10T15:48:53;98754.53;;;14.39;51.85
40992;BME280;29633;49.168;9.848;2023-02-10T15:51:29;98752.31;;;14.19;51.88
40992;BME280;29633;49.168;9.848;2023-02-10T15:53:55;98744.09;;;13.98;51.86